sensor_id;sensor_type;location;lat;lon;timestamp;temperature;humidity
18934;DHT22;9599;53.706;10.384;2023-12-07T00:00:52;1.20;99.90
18934;DHT22;9599;53.706;10.384;2023-12-07T00:03:22;1.10;99.90
18934;DHT22;9599;53.706;10.384;2023-12-07T00:05:50;1.10;99.90
18934;DHT22;9599;53.706;10.384;2023-12-07T00:08:18;1.10;99.90
18934;DHT22;9599;53.706;10.384;2023-12-07T00:10:46;1.20;99.90
18934;DHT22;9599;53.706;10.384;2023-12-07T00:13:14;1.20;99.90
18934;DHT22;9599;53.706;10.384;2023-12-07T00:15:42;1.20;99.90
18934;DHT22;9599;53.706;10.384;2023-12-07T00:18:10;1.10;99.90
18934;DHT22;9599;53.706;10.384;2023-12-07T00:20:39;1.10;99.90
18934;DHT22;9599;53.706;10.384;2023-12-07T00:23:07;1.10;99.90
18934;DHT22;9599;53.706;10.384;2023-12-07T00:25:35;1.10;99.90
18934;DHT22;9599;53.706;10.384;2023-12-07T00:28:03;1.10;99.90
18934;DHT22;9599;53.706;10.384;2023-12-07T00:30:32;1.10;99.90
18934;DHT22;9599;53.706;10.384;2023-12-07T00:33:00;1.10;99.90
18934;DHT22;9599;53.706;10.384;2023-12-07T00:35:28;1.10;99.90
18934;DHT22;9599;53.706;10.384;2023-12-07T00:37:57;1.10;99.90
18934;DHT22;9599;53.706;10.384;2023-12-07T00:40:25;1.10;99.90
18934;DHT22;9599;53.706;10.384;2023-12-07T00:42:53;1.10;99.90
18934;DHT22;9599;53.706;10.384;2023-12-07T00:45:21;1.10;99.90
18934;DHT22;9599;53.706;10.384;2023-12-07T00:47:49;1.10;99.90
18934;DHT22;9599;53.706;10.384;2023-12-07T00:50:17;1.10;99.90
18934;DHT22;9599;53.706;10.384;2023-12-07T00:52:45;1.10;99.90
18934;DHT22;9599;53.706;10.384;2023-12-07T00:55:14;1.10;99.90
18934;DHT22;9599;53.706;10.384;2023-12-07T00:57:43;1.10;99.90
18934;DHT22;9599;53.706;10.384;2023-12-07T01:00:12;1.10;99.90
18934;DHT22;9599;53.706;10.384;2023-12-07T01:02:40;1.10;99.90
18934;DHT22;9599;53.706;10.384;2023-12-07T01:05:08;1.10;99.90
18934;DHT22;9599;53.706;10.384;2023-12-07T01:07:37;1.10;99.90
18934;DHT22;9599;53.706;10.384;2023-12-07T01:10:06;1.10;99.90
18934;DHT22;9599;53.706;10.384;2023-12-07T01:12:35;1.10;99.90
18934;DHT22;9599;53.706;10.384;2023-12-07T01:15:04;1.10;99.90
18934;DHT22;9599;53.706;10.384;2023-12-07T01:17:32;1.20;99.90
18934;DHT22;9599;53.706;10.384;2023-12-07T01:20:00;1.10;99.90
18934;DHT22;9599;53.706;10.384;2023-12-07T01:22:30;1.10;99.90
18934;DHT22;9599;53.706;10.384;2023-12-07T01:24:58;1.10;99.90
18934;DHT22;9599;53.706;10.384;2023-12-07T01:27:26;1.20;99.90
18934;DHT22;9599;53.706;10.384;2023-12-07T01:29:55;1.20;99.90
18934;DHT22;9599;53.706;10.384;2023-12-07T01:32:24;1.20;99.90
18934;DHT22;9599;53.706;10.384;2023-12-07T01:34:52;1.20;99.90
18934;DHT22;9599;53.706;10.384;2023-12-07T01:37:20;1.30;99.90
18934;DHT22;9599;53.706;10.384;2023-12-07T01:39:48;1.30;99.90
18934;DHT22;9599;53.706;10.384;2023-12-07T01:42:16;1.20;99.90
18934;DHT22;9599;53.706;10.384;2023-12-07T01:44:44;1.30;99.90
18934;DHT22;9599;53.706;10.384;2023-12-07T01:47:13;1.30;99.90
18934;DHT22;9599;53.706;10.384;2023-12-07T01:49:43;1.30;99.90
18934;DHT22;9599;53.706;10.384;2023-12-07T01:52:12;1.30;99.90
18934;DHT22;9599;53.706;10.384;2023-12-07T01:54:40;1.30;99.90
18934;DHT22;9599;53.706;10.384;2023-12-07T01:57:08;1.30;99.90
18934;DHT22;9599;53.706;10.384;2023-12-07T01:59:36;1.30;99.90
18934;DHT22;9599;53.706;10.384;2023-12-07T02:02:04;1.30;99.90
18934;DHT22;9599;53.706;10.384;2023-12-07T02:04:34;1.30;99.90
18934;DHT22;9599;53.706;10.384;2023-12-07T02:07:03;1.30;99.90
18934;DHT22;9599;53.706;10.384;2023-12-07T02:09:32;1.20;99.90
18934;DHT22;9599;53.706;10.384;2023-12-07T02:12:00;1.20;99.90
18934;DHT22;9599;53.706;10.384;2023-12-07T02:14:28;1.20;99.90
18934;DHT22;9599;53.706;10.384;2023-12-07T02:17:04;1.20;99.90
18934;DHT22;9599;53.706;10.384;2023-12-07T02:19:54;1.30;99.90
18934;DHT22;9599;53.706;10.384;2023-12-07T02:22:26;1.30;99.90
18934;DHT22;9599;53.706;10.384;2023-12-07T02:25:04;1.30;99.90
18934;DHT22;9599;53.706;10.384;2023-12-07T02:27:37;1.30;99.90
18934;DHT22;9599;53.706;10.384;2023-12-07T02:30:06;1.30;99.90
18934;DHT22;9599;53.706;10.384;2023-12-07T02:32:34;1.40;99.90
18934;DHT22;9599;53.706;10.384;2023-12-07T02:35:03;1.30;99.90
18934;DHT22;9599;53.706;10.384;2023-12-07T02:37:36;1.30;99.90
18934;DHT22;9599;53.706;10.384;2023-12-07T02:40:06;1.30;99.90
18934;DHT22;9599;53.706;10.384;2023-12-07T02:42:39;1.40;99.90
18934;DHT22;9599;53.706;10.384;2023-12-07T02:45:08;1.30;99.90
18934;DHT22;9599;53.706;10.384;2023-12-07T02:47:36;1.40;99.90
18934;DHT22;9599;53.706;10.384;2023-12-07T02:50:07;1.40;99.90
18934;DHT22;9599;53.706;10.384;2023-12-07T02:52:35;1.40;99.90
18934;DHT22;9599;53.706;10.384;2023-12-07T02:55:04;1.40;99.90
18934;DHT22;9599;53.706;10.384;2023-12-07T02:57:32;1.40;99.90
18934;DHT22;9599;53.706;10.384;2023-12-07T03:00:02;1.40;99.90
18934;DHT22;9599;53.706;10.384;2023-12-07T03:02:36;1.40;99.90
18934;DHT22;9599;53.706;10.384;2023-12-07T03:05:05;1.40;99.90
18934;DHT22;9599;53.706;10.384;2023-12-07T03:07:34;1.40;99.90
18934;DHT22;9599;53.706;10.384;2023-12-07T03:10:03;1.50;99.90
18934;DHT22;9599;53.706;10.384;2023-12-07T03:12:31;1.50;99.90
18934;DHT22;9599;53.706;10.384;2023-12-07T03:15:00;1.40;99.90
18934;DHT22;9599;53.706;10.384;2023-12-07T03:17:28;1.40;99.90
18934;DHT22;9599;53.706;10.384;2023-12-07T03:19:56;1.40;99.90
18934;DHT22;9599;53.706;10.384;2023-12-07T03:22:24;1.40;99.90
18934;DHT22;9599;53.706;10.384;2023-12-07T03:24:53;1.40;99.90
18934;DHT22;9599;53.706;10.384;2023-12-07T03:27:21;1.40;99.90
18934;DHT22;9599;53.706;10.384;2023-12-07T03:29:49;1.50;99.90
18934;DHT22;9599;53.706;10.384;2023-12-07T03:32:19;1.50;99.90
18934;DHT22;9599;53.706;10.384;2023-12-07T03:34:47;1.40;99.90
18934;DHT22;9599;53.706;10.384;2023-12-07T03:37:16;1.50;99.90
18934;DHT22;9599;53.706;10.384;2023-12-07T03:39:44;1.50;99.90
18934;DHT22;9599;53.706;10.384;2023-12-07T03:42:12;1.50;99.90
18934;DHT22;9599;53.706;10.384;2023-12-07T03:45:00;1.50;99.90
18934;DHT22;9599;53.706;10.384;2023-12-07T03:47:29;1.50;99.90
18934;DHT22;9599;53.706;10.384;2023-12-07T03:49:57;1.50;99.90
18934;DHT22;9599;53.706;10.384;2023-12-07T03:52:25;1.50;99.90
18934;DHT22;9599;53.706;10.384;2023-12-07T03:54:53;1.50;99.90
18934;DHT22;9599;53.706;10.384;2023-12-07T03:57:21;1.50;99.90
18934;DHT22;9599;53.706;10.384;2023-12-07T03:59:49;1.50;99.90
18934;DHT22;9599;53.706;10.384;2023-12-07T04:02:19;1.50;99.90
18934;DHT22;9599;53.706;10.384;2023-12-07T04:04:48;1.50;99.90
18934;DHT22;9599;53.706;10.384;2023-12-07T04:07:17;1.50;99.90
18934;DHT22;9599;53.706;10.384;2023-12-07T04:09:45;1.50;99.90
18934;DHT22;9599;53.706;10.384;2023-12-07T04:12:13;1.50;99.90
18934;DHT22;9599;53.706;10.384;2023-12-07T04:14:41;1.50;99.90
18934;DHT22;9599;53.706;10.384;2023-12-07T04:17:09;1.50;99.90
18934;DHT22;9599;53.706;10.384;2023-12-07T04:19:37;1.50;99.90
18934;DHT22;9599;53.706;10.384;2023-12-07T04:22:06;1.50;99.90
18934;DHT22;9599;53.706;10.384;2023-12-07T04:24:34;1.50;99.90
18934;DHT22;9599;53.706;10.384;2023-12-07T04:27:02;1.50;99.90
18934;DHT22;9599;53.706;10.384;2023-12-07T04:29:30;1.50;99.90
18934;DHT22;9599;53.706;10.384;2023-12-07T04:31:58;1.50;99.90
18934;DHT22;9599;53.706;10.384;2023-12-07T04:34:26;1.50;99.90
18934;DHT22;9599;53.706;10.384;2023-12-07T04:36:54;1.50;99.90
18934;DHT22;9599;53.706;10.384;2023-12-07T04:39:23;1.50;99.90
18934;DHT22;9599;53.706;10.384;2023-12-07T04:41:51;1.60;99.90
18934;DHT22;9599;53.706;10.384;2023-12-07T04:44:20;1.60;99.90
18934;DHT22;9599;53.706;10.384;2023-12-07T04:46:48;1.60;99.90
18934;DHT22;9599;53.706;10.384;2023-12-07T04:49:17;1.60;99.90
18934;DHT22;9599;53.706;10.384;2023-12-07T04:51:45;1.60;99.90
18934;DHT22;9599;53.706;10.384;2023-12-07T04:54:13;1.50;99.90
18934;DHT22;9599;53.706;10.384;2023-12-07T04:56:55;1.50;99.90
18934;DHT22;9599;53.706;10.384;2023-12-07T04:59:23;1.60;99.90
18934;DHT22;9599;53.706;10.384;2023-12-07T05:01:51;1.60;99.90
18934;DHT22;9599;53.706;10.384;2023-12-07T05:04:20;1.60;99.90
18934;DHT22;9599;53.706;10.384;2023-12-07T05:06:48;1.60;99.90
18934;DHT22;9599;53.706;10.384;2023-12-07T05:09:16;1.60;99.90
18934;DHT22;9599;53.706;10.384;2023-12-07T05:11:44;1.60;99.90
18934;DHT22;9599;53.706;10.384;2023-12-07T05:14:14;1.60;99.90
18934;DHT22;9599;53.706;10.384;2023-12-07T05:16:42;1.70;99.90
18934;DHT22;9599;53.706;10.384;2023-12-07T05:19:10;1.60;99.90
18934;DHT22;9599;53.706;10.384;2023-12-07T05:21:38;1.70;99.90
18934;DHT22;9599;53.706;10.384;2023-12-07T05:24:06;1.70;99.90
18934;DHT22;9599;53.706;10.384;2023-12-07T05:26:35;1.70;99.90
18934;DHT22;9599;53.706;10.384;2023-12-07T05:29:02;1.70;99.90
18934;DHT22;9599;53.706;10.384;2023-12-07T05:31:32;1.70;99.90
18934;DHT22;9599;53.706;10.384;2023-12-07T05:34:00;1.60;99.90
18934;DHT22;9599;53.706;10.384;2023-12-07T05:36:29;1.60;99.90
18934;DHT22;9599;53.706;10.384;2023-12-07T05:38:57;1.70;99.90
18934;DHT22;9599;53.706;10.384;2023-12-07T05:41:25;1.60;99.90
18934;DHT22;9599;53.706;10.384;2023-12-07T05:43:53;1.60;99.90
18934;DHT22;9599;53.706;10.384;2023-12-07T05:46:21;1.60;99.90
18934;DHT22;9599;53.706;10.384;2023-12-07T05:48:50;1.60;99.90
18934;DHT22;9599;53.706;10.384;2023-12-07T05:51:20;1.60;99.90
18934;DHT22;9599;53.706;10.384;2023-12-07T05:53:48;1.60;99.90
18934;DHT22;9599;53.706;10.384;2023-12-07T05:56:18;1.50;99.90
18934;DHT22;9599;53.706;10.384;2023-12-07T05:58:47;1.50;99.90
18934;DHT22;9599;53.706;10.384;2023-12-07T06:01:16;1.50;99.90
18934;DHT22;9599;53.706;10.384;2023-12-07T06:03:45;1.50;99.90
18934;DHT22;9599;53.706;10.384;2023-12-07T06:06:14;1.50;99.90
18934;DHT22;9599;53.706;10.384;2023-12-07T06:08:42;1.60;99.90
18934;DHT22;9599;53.706;10.384;2023-12-07T06:11:11;1.60;99.90
18934;DHT22;9599;53.706;10.384;2023-12-07T06:13:39;1.50;99.90
18934;DHT22;9599;53.706;10.384;2023-12-07T06:16:07;1.50;99.90
18934;DHT22;9599;53.706;10.384;2023-12-07T06:18:39;1.50;99.90
18934;DHT22;9599;53.706;10.384;2023-12-07T06:21:07;1.50;99.90
18934;DHT22;9599;53.706;10.384;2023-12-07T06:23:38;1.60;99.90
18934;DHT22;9599;53.706;10.384;2023-12-07T06:26:06;1.60;99.90
18934;DHT22;9599;53.706;10.384;2023-12-07T06:28:34;1.60;99.90
18934;DHT22;9599;53.706;10.384;2023-12-07T06:31:05;1.60;99.90
18934;DHT22;9599;53.706;10.384;2023-12-07T06:33:33;1.70;99.90
18934;DHT22;9599;53.706;10.384;2023-12-07T06:36:02;1.70;99.90
18934;DHT22;9599;53.706;10.384;2023-12-07T06:38:31;1.70;99.90
18934;DHT22;9599;53.706;10.384;2023-12-07T06:41:01;1.70;99.90
18934;DHT22;9599;53.706;10.384;2023-12-07T06:43:30;1.70;99.90
18934;DHT22;9599;53.706;10.384;2023-12-07T06:45:58;1.70;99.90
18934;DHT22;9599;53.706;10.384;2023-12-07T06:48:26;1.70;99.90
18934;DHT22;9599;53.706;10.384;2023-12-07T06:50:54;1.60;99.90
18934;DHT22;9599;53.706;10.384;2023-12-07T06:53:23;1.70;99.90
18934;DHT22;9599;53.706;10.384;2023-12-07T06:55:51;1.70;99.90
18934;DHT22;9599;53.706;10.384;2023-12-07T06:58:21;1.70;99.90
18934;DHT22;9599;53.706;10.384;2023-12-07T07:00:49;1.70;99.90
18934;DHT22;9599;53.706;10.384;2023-12-07T07:03:17;1.70;99.90
18934;DHT22;9599;53.706;10.384;2023-12-07T07:05:46;1.70;99.90
18934;DHT22;9599;53.706;10.384;2023-12-07T07:08:14;1.70;99.90
18934;DHT22;9599;53.706;10.384;2023-12-07T07:10:43;1.70;99.90
18934;DHT22;9599;53.706;10.384;2023-12-07T07:13:12;1.70;99.90
18934;DHT22;9599;53.706;10.384;2023-12-07T07:15:43;1.60;99.90
18934;DHT22;9599;53.706;10.384;2023-12-07T07:18:11;1.70;99.90
18934;DHT22;9599;53.706;10.384;2023-12-07T07:20:39;1.60;99.90
18934;DHT22;9599;53.706;10.384;2023-12-07T07:23:07;1.70;99.90
18934;DHT22;9599;53.706;10.384;2023-12-07T07:25:35;1.60;99.90
18934;DHT22;9599;53.706;10.384;2023-12-07T07:28:03;1.60;99.90
18934;DHT22;9599;53.706;10.384;2023-12-07T07:30:31;1.70;99.90
18934;DHT22;9599;53.706;10.384;2023-12-07T07:33:00;1.70;99.90
18934;DHT22;9599;53.706;10.384;2023-12-07T07:35:29;1.70;99.90
18934;DHT22;9599;53.706;10.384;2023-12-07T07:37:57;1.80;99.90
18934;DHT22;9599;53.706;10.384;2023-12-07T07:40:26;1.80;99.90
18934;DHT22;9599;53.706;10.384;2023-12-07T07:42:53;1.80;99.90
18934;DHT22;9599;53.706;10.384;2023-12-07T07:45:21;1.80;99.90
18934;DHT22;9599;53.706;10.384;2023-12-07T07:47:50;1.80;99.90
18934;DHT22;9599;53.706;10.384;2023-12-07T07:50:20;1.80;99.90
18934;DHT22;9599;53.706;10.384;2023-12-07T07:52:48;1.70;99.90
18934;DHT22;9599;53.706;10.384;2023-12-07T07:55:16;1.70;99.90
18934;DHT22;9599;53.706;10.384;2023-12-07T07:57:44;1.80;99.90
18934;DHT22;9599;53.706;10.384;2023-12-07T08:00:13;1.80;99.90
18934;DHT22;9599;53.706;10.384;2023-12-07T08:02:41;1.80;99.90
18934;DHT22;9599;53.706;10.384;2023-12-07T08:05:09;1.80;99.90
18934;DHT22;9599;53.706;10.384;2023-12-07T08:07:40;1.80;99.90
18934;DHT22;9599;53.706;10.384;2023-12-07T08:10:09;1.80;99.90
18934;DHT22;9599;53.706;10.384;2023-12-07T08:12:39;1.90;99.90
18934;DHT22;9599;53.706;10.384;2023-12-07T08:15:08;1.80;99.90
18934;DHT22;9599;53.706;10.384;2023-12-07T08:17:39;1.90;99.90
18934;DHT22;9599;53.706;10.384;2023-12-07T08:20:08;1.90;99.90
18934;DHT22;9599;53.706;10.384;2023-12-07T08:22:37;1.90;99.90
18934;DHT22;9599;53.706;10.384;2023-12-07T08:25:07;1.90;99.90
18934;DHT22;9599;53.706;10.384;2023-12-07T08:27:38;1.90;99.90
18934;DHT22;9599;53.706;10.384;2023-12-07T08:30:07;1.90;99.90
18934;DHT22;9599;53.706;10.384;2023-12-07T08:32:37;1.90;99.90
18934;DHT22;9599;53.706;10.384;2023-12-07T08:35:06;2.10;99.90
18934;DHT22;9599;53.706;10.384;2023-12-07T08:37:37;2.90;99.90
18934;DHT22;9599;53.706;10.384;2023-12-07T08:40:08;3.40;99.90
18934;DHT22;9599;53.706;10.384;2023-12-07T08:42:38;3.20;99.90
18934;DHT22;9599;53.706;10.384;2023-12-07T08:45:06;2.80;99.90
18934;DHT22;9599;53.706;10.384;2023-12-07T08:47:34;2.60;99.90
18934;DHT22;9599;53.706;10.384;2023-12-07T08:50:02;2.40;99.90
18934;DHT22;9599;53.706;10.384;2023-12-07T08:52:30;2.30;99.90
18934;DHT22;9599;53.706;10.384;2023-12-07T08:55:12;2.30;99.90
18934;DHT22;9599;53.706;10.384;2023-12-07T08:57:42;2.40;99.90
18934;DHT22;9599;53.706;10.384;2023-12-07T09:00:10;2.40;99.90
18934;DHT22;9599;53.706;10.384;2023-12-07T09:02:39;2.30;99.90
18934;DHT22;9599;53.706;10.384;2023-12-07T09:05:14;2.40;99.90
18934;DHT22;9599;53.706;10.384;2023-12-07T09:07:42;2.40;99.90
18934;DHT22;9599;53.706;10.384;2023-12-07T09:10:12;2.30;99.90
18934;DHT22;9599;53.706;10.384;2023-12-07T09:12:40;2.30;99.90
18934;DHT22;9599;53.706;10.384;2023-12-07T09:15:08;2.30;99.90
18934;DHT22;9599;53.706;10.384;2023-12-07T09:17:38;2.30;99.90
18934;DHT22;9599;53.706;10.384;2023-12-07T09:20:08;2.30;99.90
18934;DHT22;9599;53.706;10.384;2023-12-07T09:22:40;2.40;99.90
18934;DHT22;9599;53.706;10.384;2023-12-07T09:25:08;2.60;99.90
18934;DHT22;9599;53.706;10.384;2023-12-07T09:27:38;3.10;99.90
18934;DHT22;9599;53.706;10.384;2023-12-07T09:30:07;3.10;99.90
18934;DHT22;9599;53.706;10.384;2023-12-07T09:32:37;2.90;99.90
18934;DHT22;9599;53.706;10.384;2023-12-07T09:35:06;2.80;99.90
18934;DHT22;9599;53.706;10.384;2023-12-07T09:37:34;2.80;99.90
18934;DHT22;9599;53.706;10.384;2023-12-07T09:40:03;2.80;99.90
18934;DHT22;9599;53.706;10.384;2023-12-07T09:42:32;2.80;99.90
18934;DHT22;9599;53.706;10.384;2023-12-07T09:45:05;2.70;99.90
18934;DHT22;9599;53.706;10.384;2023-12-07T09:47:34;2.70;99.90
18934;DHT22;9599;53.706;10.384;2023-12-07T09:50:07;2.70;99.90
18934;DHT22;9599;53.706;10.384;2023-12-07T09:52:35;2.60;99.90
18934;DHT22;9599;53.706;10.384;2023-12-07T09:55:05;2.60;99.90
18934;DHT22;9599;53.706;10.384;2023-12-07T09:57:34;2.70;99.90
18934;DHT22;9599;53.706;10.384;2023-12-07T10:00:04;2.70;99.90
18934;DHT22;9599;53.706;10.384;2023-12-07T10:02:36;2.70;99.90
18934;DHT22;9599;53.706;10.384;2023-12-07T10:05:06;2.70;99.90
18934;DHT22;9599;53.706;10.384;2023-12-07T10:07:36;2.80;99.90
18934;DHT22;9599;53.706;10.384;2023-12-07T10:10:05;2.80;99.90
18934;DHT22;9599;53.706;10.384;2023-12-07T10:12:35;2.80;99.90
18934;DHT22;9599;53.706;10.384;2023-12-07T10:15:12;2.80;99.90
18934;DHT22;9599;53.706;10.384;2023-12-07T10:17:48;2.80;99.90
18934;DHT22;9599;53.706;10.384;2023-12-07T10:20:17;2.90;99.90
18934;DHT22;9599;53.706;10.384;2023-12-07T10:22:46;2.90;99.90
18934;DHT22;9599;53.706;10.384;2023-12-07T10:25:14;2.90;99.90
18934;DHT22;9599;53.706;10.384;2023-12-07T10:27:42;2.90;99.90
18934;DHT22;9599;53.706;10.384;2023-12-07T10:30:12;2.80;99.90
18934;DHT22;9599;53.706;10.384;2023-12-07T10:32:41;2.80;99.90
18934;DHT22;9599;53.706;10.384;2023-12-07T10:35:09;2.80;99.90
18934;DHT22;9599;53.706;10.384;2023-12-07T10:37:37;2.80;99.90
18934;DHT22;9599;53.706;10.384;2023-12-07T10:40:06;2.80;99.90
18934;DHT22;9599;53.706;10.384;2023-12-07T10:42:34;3.00;99.90
18934;DHT22;9599;53.706;10.384;2023-12-07T10:45:05;3.00;99.90
18934;DHT22;9599;53.706;10.384;2023-12-07T10:47:37;3.00;99.90
18934;DHT22;9599;53.706;10.384;2023-12-07T10:50:07;3.00;99.90
18934;DHT22;9599;53.706;10.384;2023-12-07T10:52:44;3.10;99.90
18934;DHT22;9599;53.706;10.384;2023-12-07T10:55:16;3.10;99.90
18934;DHT22;9599;53.706;10.384;2023-12-07T10:57:46;3.20;99.90
18934;DHT22;9599;53.706;10.384;2023-12-07T11:00:16;3.20;99.90
18934;DHT22;9599;53.706;10.384;2023-12-07T11:03:00;3.00;99.90
18934;DHT22;9599;53.706;10.384;2023-12-07T11:05:29;3.10;99.90
18934;DHT22;9599;53.706;10.384;2023-12-07T11:08:05;3.10;99.90
18934;DHT22;9599;53.706;10.384;2023-12-07T11:10:42;3.00;99.90
18934;DHT22;9599;53.706;10.384;2023-12-07T11:13:17;3.00;99.90
18934;DHT22;9599;53.706;10.384;2023-12-07T11:15:45;3.00;99.90
18934;DHT22;9599;53.706;10.384;2023-12-07T11:18:15;3.00;99.90
18934;DHT22;9599;53.706;10.384;2023-12-07T11:20:44;3.00;99.90
18934;DHT22;9599;53.706;10.384;2023-12-07T11:23:16;3.00;99.90
18934;DHT22;9599;53.706;10.384;2023-12-07T11:25:46;3.00;99.90
18934;DHT22;9599;53.706;10.384;2023-12-07T11:28:15;3.10;99.90
18934;DHT22;9599;53.706;10.384;2023-12-07T11:30:44;3.10;99.90
18934;DHT22;9599;53.706;10.384;2023-12-07T11:33:16;3.10;99.90
18934;DHT22;9599;53.706;10.384;2023-12-07T11:36:03;3.10;99.90
18934;DHT22;9599;53.706;10.384;2023-12-07T11:38:32;3.10;99.90
18934;DHT22;9599;53.706;10.384;2023-12-07T11:41:00;3.10;99.90
18934;DHT22;9599;53.706;10.384;2023-12-07T11:43:41;3.20;99.90
18934;DHT22;9599;53.706;10.384;2023-12-07T11:46:13;3.20;99.90
18934;DHT22;9599;53.706;10.384;2023-12-07T11:48:49;3.20;99.90
18934;DHT22;9599;53.706;10.384;2023-12-07T11:51:18;3.20;99.90
18934;DHT22;9599;53.706;10.384;2023-12-07T11:53:45;3.20;99.90
18934;DHT22;9599;53.706;10.384;2023-12-07T11:56:15;3.20;99.90
18934;DHT22;9599;53.706;10.384;2023-12-07T11:58:47;3.20;99.90
18934;DHT22;9599;53.706;10.384;2023-12-07T12:01:17;3.30;99.90
18934;DHT22;9599;53.706;10.384;2023-12-07T12:03:45;3.20;99.90
18934;DHT22;9599;53.706;10.384;2023-12-07T12:06:15;3.20;99.90
18934;DHT22;9599;53.706;10.384;2023-12-07T12:08:43;3.10;99.90
18934;DHT22;9599;53.706;10.384;2023-12-07T12:11:12;3.10;99.90
18934;DHT22;9599;53.706;10.384;2023-12-07T12:13:40;3.10;99.90
18934;DHT22;9599;53.706;10.384;2023-12-07T12:16:09;3.10;99.90
18934;DHT22;9599;53.706;10.384;2023-12-07T12:18:37;3.00;99.90
18934;DHT22;9599;53.706;10.384;2023-12-07T12:21:07;3.00;99.90
18934;DHT22;9599;53.706;10.384;2023-12-07T12:23:37;3.00;99.90
18934;DHT22;9599;53.706;10.384;2023-12-07T12:26:07;3.00;99.90
18934;DHT22;9599;53.706;10.384;2023-12-07T12:28:36;3.00;99.90
18934;DHT22;9599;53.706;10.384;2023-12-07T12:31:10;2.90;99.90
18934;DHT22;9599;53.706;10.384;2023-12-07T12:33:40;3.00;99.90
18934;DHT22;9599;53.706;10.384;2023-12-07T12:36:08;3.00;99.90
18934;DHT22;9599;53.706;10.384;2023-12-07T12:38:38;3.00;99.90
18934;DHT22;9599;53.706;10.384;2023-12-07T12:41:11;3.00;99.90
18934;DHT22;9599;53.706;10.384;2023-12-07T12:43:40;2.90;99.90
18934;DHT22;9599;53.706;10.384;2023-12-07T12:46:09;2.90;99.90
18934;DHT22;9599;53.706;10.384;2023-12-07T12:48:52;2.90;99.90
18934;DHT22;9599;53.706;10.384;2023-12-07T12:51:23;2.90;99.90
18934;DHT22;9599;53.706;10.384;2023-12-07T12:53:54;2.80;99.90
18934;DHT22;9599;53.706;10.384;2023-12-07T12:56:23;2.80;99.90
18934;DHT22;9599;53.706;10.384;2023-12-07T12:58:51;2.90;99.90
18934;DHT22;9599;53.706;10.384;2023-12-07T13:01:21;2.90;99.90
18934;DHT22;9599;53.706;10.384;2023-12-07T13:03:50;2.90;99.90
18934;DHT22;9599;53.706;10.384;2023-12-07T13:06:18;2.90;99.90
18934;DHT22;9599;53.706;10.384;2023-12-07T13:08:47;2.90;99.90
18934;DHT22;9599;53.706;10.384;2023-12-07T13:11:17;2.90;99.90
18934;DHT22;9599;53.706;10.384;2023-12-07T13:13:46;2.90;99.90
18934;DHT22;9599;53.706;10.384;2023-12-07T13:16:15;2.90;99.90
18934;DHT22;9599;53.706;10.384;2023-12-07T13:18:44;2.90;99.90
18934;DHT22;9599;53.706;10.384;2023-12-07T13:21:12;2.80;99.90
18934;DHT22;9599;53.706;10.384;2023-12-07T13:23:43;2.80;99.90
18934;DHT22;9599;53.706;10.384;2023-12-07T13:26:12;2.90;99.90
18934;DHT22;9599;53.706;10.384;2023-12-07T13:28:41;2.90;99.90
18934;DHT22;9599;53.706;10.384;2023-12-07T13:31:10;3.00;99.90
18934;DHT22;9599;53.706;10.384;2023-12-07T13:33:38;3.00;99.90
18934;DHT22;9599;53.706;10.384;2023-12-07T13:36:21;3.00;99.90
18934;DHT22;9599;53.706;10.384;2023-12-07T13:38:50;3.00;99.90
18934;DHT22;9599;53.706;10.384;2023-12-07T13:41:19;3.10;99.90
18934;DHT22;9599;53.706;10.384;2023-12-07T13:43:48;3.10;99.90
18934;DHT22;9599;53.706;10.384;2023-12-07T13:46:17;3.10;99.90
18934;DHT22;9599;53.706;10.384;2023-12-07T13:48:45;3.10;99.90
18934;DHT22;9599;53.706;10.384;2023-12-07T13:51:13;3.10;99.90
18934;DHT22;9599;53.706;10.384;2023-12-07T13:53:41;3.00;99.90
18934;DHT22;9599;53.706;10.384;2023-12-07T13:56:09;3.00;99.90
18934;DHT22;9599;53.706;10.384;2023-12-07T13:58:37;3.10;99.90
18934;DHT22;9599;53.706;10.384;2023-12-07T14:01:07;3.00;99.90
18934;DHT22;9599;53.706;10.384;2023-12-07T14:03:36;3.00;99.90
18934;DHT22;9599;53.706;10.384;2023-12-07T14:06:05;2.90;99.90
18934;DHT22;9599;53.706;10.384;2023-12-07T14:08:47;3.00;99.90
18934;DHT22;9599;53.706;10.384;2023-12-07T14:11:15;3.00;99.90
18934;DHT22;9599;53.706;10.384;2023-12-07T14:13:43;3.00;99.90
18934;DHT22;9599;53.706;10.384;2023-12-07T14:16:14;3.00;99.90
18934;DHT22;9599;53.706;10.384;2023-12-07T14:18:53;2.90;99.90
18934;DHT22;9599;53.706;10.384;2023-12-07T14:21:43;2.90;99.90
18934;DHT22;9599;53.706;10.384;2023-12-07T14:24:22;3.00;99.90
18934;DHT22;9599;53.706;10.384;2023-12-07T14:26:50;2.90;99.90
18934;DHT22;9599;53.706;10.384;2023-12-07T14:29:18;2.90;99.90
18934;DHT22;9599;53.706;10.384;2023-12-07T14:31:54;2.90;99.90
18934;DHT22;9599;53.706;10.384;2023-12-07T14:34:23;2.80;99.90
18934;DHT22;9599;53.706;10.384;2023-12-07T14:37:01;2.80;99.90
18934;DHT22;9599;53.706;10.384;2023-12-07T14:39:32;2.70;99.90
18934;DHT22;9599;53.706;10.384;2023-12-07T14:42:00;2.70;99.90
18934;DHT22;9599;53.706;10.384;2023-12-07T14:44:29;2.70;99.90
18934;DHT22;9599;53.706;10.384;2023-12-07T14:46:58;2.70;99.90
18934;DHT22;9599;53.706;10.384;2023-12-07T14:49:27;2.70;99.90
18934;DHT22;9599;53.706;10.384;2023-12-07T14:51:55;2.70;99.90
18934;DHT22;9599;53.706;10.384;2023-12-07T14:54:25;2.60;99.90
18934;DHT22;9599;53.706;10.384;2023-12-07T14:56:56;2.60;99.90
18934;DHT22;9599;53.706;10.384;2023-12-07T14:59:25;2.50;99.90
18934;DHT22;9599;53.706;10.384;2023-12-07T15:01:53;2.60;99.90
18934;DHT22;9599;53.706;10.384;2023-12-07T15:04:23;2.50;99.90
18934;DHT22;9599;53.706;10.384;2023-12-07T15:07:00;2.50;99.90
18934;DHT22;9599;53.706;10.384;2023-12-07T15:09:28;2.40;99.90
18934;DHT22;9599;53.706;10.384;2023-12-07T15:11:57;2.50;99.90
18934;DHT22;9599;53.706;10.384;2023-12-07T15:14:25;2.50;99.90
18934;DHT22;9599;53.706;10.384;2023-12-07T15:17:04;2.40;99.90
18934;DHT22;9599;53.706;10.384;2023-12-07T15:19:34;2.40;99.90
18934;DHT22;9599;53.706;10.384;2023-12-07T15:22:06;2.40;99.90
18934;DHT22;9599;53.706;10.384;2023-12-07T15:24:35;2.40;99.90
18934;DHT22;9599;53.706;10.384;2023-12-07T15:27:06;2.40;99.90
18934;DHT22;9599;53.706;10.384;2023-12-07T15:29:35;2.30;99.90
18934;DHT22;9599;53.706;10.384;2023-12-07T15:32:05;2.30;99.90
18934;DHT22;9599;53.706;10.384;2023-12-07T15:34:35;2.30;99.90
18934;DHT22;9599;53.706;10.384;2023-12-07T15:37:07;2.30;99.90
18934;DHT22;9599;53.706;10.384;2023-12-07T15:39:36;2.20;99.90
18934;DHT22;9599;53.706;10.384;2023-12-07T15:42:05;2.20;99.90
18934;DHT22;9599;53.706;10.384;2023-12-07T15:44:33;2.20;99.90
18934;DHT22;9599;53.706;10.384;2023-12-07T15:47:01;2.20;99.90
18934;DHT22;9599;53.706;10.384;2023-12-07T15:49:29;2.20;99.90
18934;DHT22;9599;53.706;10.384;2023-12-07T15:51:58;2.20;99.90
18934;DHT22;9599;53.706;10.384;2023-12-07T15:54:27;2.20;99.90
18934;DHT22;9599;53.706;10.384;2023-12-07T15:57:06;2.10;99.90
18934;DHT22;9599;53.706;10.384;2023-12-07T15:59:36;2.10;99.90